Welcome to Northern Hawkes Bay. New Zealand.
PWS Header
      nz Flag



Hit Counter


W3C Valid W3C Valid logo


    Wairoa

Select any of the Stations below to visit their websites.










Historic Data from Weather Underground
Select the location of interest below. Wairoa is the default. Please have patience, this Data is slow to load in.
Northern Hawkes Bay Historical Data
Daily Summary for March 11, 2017 Units:  Metric    English   Both
« Previous Day
Next Day »
Daily Weekly Monthly Yearly Custom
  High: Low: Average:
Temperature: 25.5 °C 17.6 °C 20.7 °C
Dew Point: 22.1 °C 16.7 °C 18.9 °C
Humidity: 99% 72% 90%
Wind Speed: 14.8km/h 0.0km/h 1km/h
Wind Gust: 21.9km/h - -
Wind- - ENE
Pressure: 1013.1 hPa 1002.3 hPa -
Precipitation: 9.9 mm    
Historical Graphs
 
 
Tabular Data for March 11, 2017
Time Temperature Dew Point Pressure Wind Wind Speed Wind Gust Humidity Rainfall Rate (Hourly) solar
00:04 18.9 °C 16.7 °C 1013.1 hPa Calm     87% 0.0 mm 0 W/m2
00:09 18.9 °C 16.7 °C 1013.1 hPa Calm     87% 0.0 mm 0 W/m2
00:14 18.9 °C 16.9 °C 1012.8 hPa Calm     88% 0.0 mm 0 W/m2
00:19 18.8 °C 16.8 °C 1012.8 hPa Calm     88% 0.0 mm 0 W/m2
00:24 18.9 °C 17.1 °C 1012.8 hPa Calm     89% 0.0 mm 0 W/m2
00:29 18.8 °C 16.9 °C 1012.8 hPa Calm     89% 0.0 mm 0 W/m2
00:34 18.8 °C 17.1 °C 1012.4 hPa Calm     90% 0.0 mm 0 W/m2
00:39 18.8 °C 17.1 °C 1012.4 hPa Calm     90% 0.0 mm 0 W/m2
00:44 18.7 °C 17.1 °C 1012.4 hPa Calm     90% 0.0 mm 0 W/m2
00:49 18.7 °C 17.1 °C 1012.4 hPa Calm     90% 0.0 mm 0 W/m2
00:54 18.6 °C 17.1 °C 1012.4 hPa Calm     91% 0.0 mm 0 W/m2
00:59 18.5 °C 17.0 °C 1012.8 hPa Calm   2.6 km/h 91% 0.0 mm 0 W/m2
01:04 18.5 °C 17.0 °C 1012.8 hPa Calm   2.6 km/h 91% 0.0 mm 0 W/m2
01:09 18.5 °C 17.0 °C 1012.8 hPa Calm   2.6 km/h 91% 0.0 mm 0 W/m2
01:14 18.5 °C 17.2 °C 1012.8 hPa Calm     92% 0.0 mm 0 W/m2
01:19 18.5 °C 17.2 °C 1012.8 hPa Calm     92% 0.0 mm 0 W/m2
01:24 18.5 °C 17.3 °C 1012.8 hPa Calm     93% 0.0 mm 0 W/m2
01:29 18.5 °C 17.3 °C 1012.4 hPa Calm     93% 0.0 mm 0 W/m2
01:34 18.4 °C 17.3 °C 1012.4 hPa Calm     93% 0.0 mm 0 W/m2
01:39 18.5 °C 17.6 °C 1012.4 hPa Calm     94% 0.0 mm 0 W/m2
01:44 18.4 °C 17.4 °C 1012.4 hPa Calm     94% 0.0 mm 0 W/m2
01:49 18.3 °C 17.3 °C 1012.4 hPa Calm     94% 0.3 mm 0 W/m2
01:54 18.3 °C 17.3 °C 1012.4 hPa Calm     94% 0.3 mm 0 W/m2
01:59 18.3 °C 17.3 °C 1012.1 hPa Calm     94% 0.5 mm 0 W/m2
02:04 18.3 °C 17.5 °C 1012.1 hPa Calm     95% 0.5 mm 0 W/m2
02:09 18.3 °C 17.5 °C 1011.7 hPa Calm   1.1 km/h 95% 1.0 mm 0 W/m2
02:14 18.2 °C 17.6 °C 1011.7 hPa Calm   1.1 km/h 96% 1.0 mm 0 W/m2
02:19 18.1 °C 17.4 °C 1011.7 hPa Calm     96% 1.3 mm 0 W/m2
02:24 18.1 °C 17.4 °C 1011.7 hPa Calm     96% 1.5 mm 0 W/m2
02:29 18.1 °C 17.4 °C 1011.7 hPa Calm     96% 1.5 mm 0 W/m2
02:34 18.1 °C 17.6 °C 1011.7 hPa Calm     97% 1.8 mm 0 W/m2
02:39 18.0 °C 17.6 °C 1011.4 hPa Calm     97% 1.8 mm 0 W/m2
02:44 18.0 °C 17.6 °C 1011.4 hPa Calm   1.1 km/h 97% 1.8 mm 0 W/m2
02:49 17.9 °C 17.4 °C 1011.4 hPa Calm   1.1 km/h 97% 1.8 mm 0 W/m2
02:54 17.9 °C 17.4 °C 1011.1 hPa Calm   1.1 km/h 97% 1.8 mm 0 W/m2
02:59 17.8 °C 17.3 °C 1011.4 hPa Calm     97% 1.8 mm 0 W/m2
03:04 17.8 °C 17.3 °C 1010.7 hPa Calm     97% 1.8 mm 0 W/m2
03:09 17.8 °C 17.3 °C 1010.7 hPa Calm     97% 1.8 mm 0 W/m2
03:14 17.8 °C 17.3 °C 1010.7 hPa Calm     97% 1.8 mm 0 W/m2
03:19 17.8 °C 17.3 °C 1010.4 hPa Calm     97% 1.8 mm 0 W/m2
03:24 17.8 °C 17.3 °C 1010.4 hPa Calm     97% 1.8 mm 0 W/m2
03:29 17.8 °C 17.3 °C 1010.7 hPa Calm     97% 1.8 mm 0 W/m2
03:34 17.9 °C 17.4 °C 1010.4 hPa Calm     97% 1.8 mm 0 W/m2
03:39 17.9 °C 17.4 °C 1010.4 hPa Calm   2.6 km/h 97% 2.0 mm 0 W/m2
03:44 17.9 °C 17.4 °C 1010.4 hPa Calm   2.6 km/h 97% 2.3 mm 0 W/m2
03:49 17.9 °C 17.4 °C 1010.0 hPa Calm   1.1 km/h 97% 2.3 mm 0 W/m2
03:59 17.9 °C 17.4 °C 1009.7 hPa Calm   1.1 km/h 97% 2.0 mm 0 W/m2
04:04 17.9 °C 17.4 °C 1009.4 hPa Calm   1.1 km/h 97% 2.3 mm 0 W/m2
04:09 17.9 °C 17.4 °C 1009.4 hPa Calm     97% 2.0 mm 0 W/m2
04:14 17.8 °C 17.3 °C 1009.4 hPa Calm     97% 1.8 mm 0 W/m2
04:19 17.8 °C 17.3 °C 1009.0 hPa Calm     97% 1.8 mm 0 W/m2
04:24 17.8 °C 17.3 °C 1009.0 hPa Calm     97% 1.5 mm 0 W/m2
04:29 17.8 °C 17.3 °C 1009.0 hPa Calm     97% 1.5 mm 0 W/m2
04:35 17.8 °C 17.3 °C 1008.7 hPa Calm     97% 1.0 mm 0 W/m2
04:40 17.8 °C 17.3 °C 1008.4 hPa Calm     97% 1.0 mm 0 W/m2
04:45 17.8 °C 17.3 °C 1008.7 hPa Calm     97% 0.5 mm 0 W/m2
04:50 17.8 °C 17.3 °C 1008.4 hPa Calm     97% 0.3 mm 0 W/m2
04:55 17.8 °C 17.3 °C 1008.4 hPa Calm     97% 0.3 mm 0 W/m2
05:00 17.8 °C 17.3 °C 1008.4 hPa Calm     97% 0.0 mm 0 W/m2
05:05 17.7 °C 17.2 °C 1008.4 hPa Calm     97% 0.0 mm 0 W/m2
05:10 17.7 °C 17.2 °C 1008.4 hPa Calm     97% 0.0 mm 0 W/m2
05:15 17.7 °C 17.2 °C 1008.4 hPa Calm     97% 0.0 mm 0 W/m2
05:21 17.6 °C 17.1 °C 1008.0 hPa Calm     97% 0.0 mm 0 W/m2
05:26 17.6 °C 17.1 °C 1008.0 hPa Calm     97% 0.0 mm 0 W/m2
05:31 17.6 °C 17.1 °C 1008.0 hPa Calm     97% 0.0 mm 0 W/m2
05:36 17.7 °C 17.2 °C 1008.0 hPa Calm   2.6 km/h 97% 0.0 mm 0 W/m2
05:41 17.7 °C 17.2 °C 1008.0 hPa Calm   2.6 km/h 97% 0.0 mm 0 W/m2
05:46 17.7 °C 17.2 °C 1007.7 hPa Calm   2.6 km/h 97% 0.0 mm 0 W/m2
05:51 17.7 °C 17.2 °C 1007.7 hPa Calm     97% 0.0 mm 0 W/m2
05:52 17.7 °C 17.2 °C 1007.7 hPa Calm     97% 0.0 mm 0 W/m2
05:57 17.7 °C 17.2 °C 1007.7 hPa Calm     97% 0.0 mm 0 W/m2
06:02 17.7 °C 17.2 °C 1007.3 hPa Calm     97% 0.0 mm 0 W/m2
06:07 17.7 °C 17.2 °C 1007.7 hPa Calm     97% 0.0 mm 0 W/m2
06:12 17.7 °C 17.2 °C 1007.3 hPa Calm     97% 0.0 mm 0 W/m2
06:17 17.7 °C 17.2 °C 1007.7 hPa Calm     97% 0.0 mm 0 W/m2
06:22 17.7 °C 17.2 °C 1007.3 hPa Calm     97% 0.0 mm 0 W/m2
06:27 17.7 °C 17.2 °C 1007.3 hPa Calm     97% 0.0 mm 0 W/m2
06:32 17.7 °C 17.2 °C 1007.3 hPa Calm     97% 0.0 mm 0 W/m2
06:37 17.8 °C 17.3 °C 1007.3 hPa Calm     97% 0.0 mm 0 W/m2
06:42 17.7 °C 17.2 °C 1007.3 hPa Calm     97% 0.3 mm 0 W/m2
06:47 17.7 °C 17.2 °C 1007.3 hPa Calm     97% 0.3 mm 0 W/m2
06:52 17.7 °C 17.2 °C 1007.3 hPa Calm     97% 0.3 mm 0 W/m2
06:57 17.7 °C 17.2 °C 1007.3 hPa Calm     97% 0.3 mm 0 W/m2
07:02 17.7 °C 17.2 °C 1007.3 hPa Calm     97% 0.3 mm 0 W/m2
07:07 17.7 °C 17.2 °C 1007.3 hPa Calm     97% 0.3 mm 0 W/m2
07:12 17.7 °C 17.2 °C 1007.3 hPa Calm     97% 0.3 mm 0 W/m2
07:17 17.7 °C 17.2 °C 1007.3 hPa Calm     97% 0.3 mm 0 W/m2
07:22 17.7 °C 17.2 °C 1007.3 hPa NW 1.1 km/h 2.6 km/h 97% 0.5 mm 1 W/m2
07:27 17.7 °C 17.2 °C 1007.3 hPa Calm   2.6 km/h 97% 1.0 mm 2 W/m2
07:32 17.7 °C 17.2 °C 1007.7 hPa Calm   2.6 km/h 97% 1.0 mm 2 W/m2
07:37 17.7 °C 17.2 °C 1007.3 hPa Calm   3.5 km/h 97% 1.3 mm 4 W/m2
07:43 17.7 °C 17.2 °C 1007.3 hPa Calm   3.5 km/h 97% 1.3 mm 3 W/m2
07:48 17.7 °C 17.2 °C 1007.3 hPa Calm   2.6 km/h 97% 1.5 mm 8 W/m2
07:53 17.7 °C 17.2 °C 1007.7 hPa Calm   2.6 km/h 97% 1.8 mm 10 W/m2
07:58 17.7 °C 17.2 °C 1007.7 hPa Calm     97% 1.8 mm 9 W/m2
08:03 17.7 °C 17.2 °C 1007.3 hPa Calm   5.0 km/h 97% 2.0 mm 11 W/m2
08:08 17.8 °C 17.3 °C 1007.3 hPa Calm   5.0 km/h 97% 2.0 mm 13 W/m2
08:13 17.8 °C 17.3 °C 1007.3 hPa Calm   1.1 km/h 97% 2.3 mm 12 W/m2
08:18 17.8 °C 17.3 °C 1007.3 hPa Calm     97% 3.0 mm 12 W/m2
08:23 17.9 °C 17.4 °C 1007.7 hPa Calm     97% 3.0 mm 14 W/m2
08:28 17.9 °C 17.4 °C 1007.7 hPa Calm     97% 3.3 mm 19 W/m2
08:33 17.9 °C 17.4 °C 1007.3 hPa Calm     97% 3.3 mm 46 W/m2
08:38 18.0 °C 17.8 °C 1007.3 hPa Calm     99% 3.0 mm 48 W/m2
08:43 18.1 °C 17.9 °C 1007.3 hPa Calm     99% 3.0 mm 47 W/m2
08:48 18.1 °C 17.9 °C 1007.3 hPa Calm     99% 2.8 mm 50 W/m2
08:53 18.1 °C 17.9 °C 1007.3 hPa Calm     99% 2.3 mm 50 W/m2
08:58 18.2 °C 18.1 °C 1007.3 hPa Calm     99% 2.3 mm 66 W/m2
09:03 18.3 °C 18.2 °C 1007.3 hPa Calm     99% 2.0 mm 73 W/m2
09:08 18.4 °C 18.3 °C 1007.3 hPa Calm     99% 2.0 mm 85 W/m2
09:13 18.5 °C 18.3 °C 1007.3 hPa Calm     99% 1.8 mm 91 W/m2
09:18 18.7 °C 18.6 °C 1007.3 hPa Calm     99% 1.3 mm 92 W/m2
09:23 18.7 °C 18.6 °C 1007.3 hPa Calm     99% 1.0 mm 96 W/m2
09:28 18.9 °C 18.8 °C 1007.3 hPa Calm     99% 0.5 mm 91 W/m2
09:33 19.0 °C 18.8 °C 1007.3 hPa Calm     99% 0.5 mm 85 W/m2
09:38 19.1 °C 18.9 °C 1007.3 hPa Calm     99% 0.5 mm 85 W/m2
09:43 19.2 °C 19.1 °C 1007.0 hPa Calm     99% 0.3 mm 75 W/m2
09:48 19.2 °C 19.1 °C 1007.0 hPa Calm     99% 0.3 mm 78 W/m2
09:53 19.3 °C 19.2 °C 1007.0 hPa Calm     99% 0.3 mm 89 W/m2
09:58 19.4 °C 19.3 °C 1007.0 hPa Calm     99% 0.3 mm 95 W/m2
10:03 19.5 °C 19.3 °C 1007.0 hPa Calm     99% 0.3 mm 105 W/m2
10:08 19.6 °C 19.4 °C 1007.0 hPa Calm     99% 0.3 mm 127 W/m2
10:13 19.8 °C 19.7 °C 1007.0 hPa Calm     99% 0.3 mm 131 W/m2
10:18 19.8 °C 19.7 °C 1007.0 hPa Calm   7.2 km/h 99% 0.3 mm 133 W/m2
10:24 19.9 °C 19.8 °C 1007.0 hPa Calm   6.1 km/h 99% 0.3 mm 125 W/m2
10:29 20.1 °C 19.9 °C 1007.0 hPa Calm   3.5 km/h 99% 0.0 mm 106 W/m2
10:34 20.2 °C 20.1 °C 1007.3 hPa Calm     99% 0.0 mm 87 W/m2
10:39 20.2 °C 20.1 °C 1007.3 hPa Calm     99% 0.0 mm 95 W/m2
10:44 20.3 °C 20.2 °C 1007.3 hPa Calm     99% 0.0 mm 84 W/m2
10:49 20.3 °C 20.2 °C 1007.0 hPa Calm     99% 0.0 mm 92 W/m2
10:54 20.3 °C 20.2 °C 1007.0 hPa Calm     99% 0.0 mm 93 W/m2
10:59 20.4 °C 20.3 °C 1007.0 hPa Calm     99% 0.0 mm 105 W/m2
11:04 20.5 °C 20.3 °C 1007.0 hPa Calm     99% 0.0 mm 105 W/m2
11:09 20.7 °C 20.6 °C 1007.0 hPa Calm     99% 0.0 mm 133 W/m2
11:14 20.8 °C 20.7 °C 1007.0 hPa Calm     99% 0.0 mm 138 W/m2
11:19 21.0 °C 20.7 °C 1007.0 hPa Calm     98% 0.0 mm 145 W/m2
11:24 21.2 °C 20.9 °C 1007.0 hPa Calm     98% 0.0 mm 149 W/m2
11:29 21.3 °C 21.0 °C 1006.7 hPa Calm     98% 0.0 mm 144 W/m2
11:34 21.3 °C 21.0 °C 1006.7 hPa Calm     98% 0.0 mm 138 W/m2
11:39 21.2 °C 20.9 °C 1006.7 hPa Calm     98% 0.0 mm 135 W/m2
11:44 21.3 °C 21.0 °C 1006.3 hPa Calm     98% 0.0 mm 131 W/m2
11:49 21.6 °C 21.3 °C 1006.3 hPa Calm     98% 0.0 mm 119 W/m2
11:54 21.7 °C 21.4 °C 1006.3 hPa Calm     98% 0.0 mm 135 W/m2
11:59 21.9 °C 21.6 °C 1006.3 hPa Calm     98% 0.0 mm 143 W/m2
12:04 21.8 °C 21.5 °C 1006.0 hPa Calm     98% 0.0 mm 157 W/m2
12:09 22.0 °C 21.5 °C 1006.3 hPa Calm     97% 0.0 mm 176 W/m2
12:14 22.2 °C 21.7 °C 1006.0 hPa Calm     97% 0.0 mm 189 W/m2
12:19 22.5 °C 22.0 °C 1006.0 hPa Calm     97% 0.0 mm 170 W/m2
12:24 22.4 °C 21.9 °C 1006.0 hPa Calm     97% 0.0 mm 210 W/m2
12:29 22.6 °C 22.1 °C 1006.0 hPa Calm     97% 0.0 mm 225 W/m2
12:34 22.8 °C 22.0 °C 1006.0 hPa Calm     95% 0.0 mm 204 W/m2
12:39 23.0 °C 22.0 °C 1005.6 hPa Calm     94% 0.0 mm 184 W/m2
12:41 23.0 °C 22.0 °C 1005.6 hPa Calm     94% 0.0 mm 187 W/m2
12:46 23.1 °C 21.8 °C 1006.0 hPa Calm     92% 0.0 mm 181 W/m2
12:51 23.2 °C 21.5 °C 1005.6 hPa Calm     90% 0.0 mm 158 W/m2
12:56 23.3 °C 21.4 °C 1005.3 hPa Calm     89% 0.0 mm 146 W/m2
13:01 23.2 °C 21.1 °C 1005.3 hPa Calm     88% 0.0 mm 153 W/m2
13:06 23.2 °C 21.1 °C 1005.3 hPa NNE 2.6 km/h 5.0 km/h 88% 0.0 mm 142 W/m2
13:11 23.1 °C 21.2 °C 1005.3 hPa NE 2.6 km/h 6.1 km/h 89% 0.0 mm 140 W/m2
13:16 23.0 °C 21.1 °C 1005.3 hPa ENE 3.5 km/h 7.2 km/h 89% 0.0 mm 153 W/m2
13:21 23.0 °C 21.1 °C 1005.3 hPa Calm   7.2 km/h 89% 0.0 mm 154 W/m2
13:26 23.1 °C 21.2 °C 1005.3 hPa Calm   5.0 km/h 89% 0.0 mm 138 W/m2
13:31 23.2 °C 21.3 °C 1005.3 hPa Calm     89% 0.0 mm 137 W/m2
13:36 23.1 °C 21.0 °C 1005.3 hPa Calm   8.7 km/h 88% 0.0 mm 145 W/m2
13:41 23.2 °C 21.1 °C 1005.3 hPa Calm   8.7 km/h 88% 0.0 mm 167 W/m2
13:46 23.2 °C 20.9 °C 1005.0 hPa Calm   6.1 km/h 87% 0.0 mm 161 W/m2
13:51 23.3 °C 21.1 °C 1005.0 hPa Calm   8.7 km/h 87% 0.0 mm 173 W/m2
13:56 23.4 °C 20.9 °C 1005.3 hPa Calm   8.7 km/h 86% 0.0 mm 130 W/m2
14:01 23.4 °C 20.9 °C 1005.0 hPa Calm   2.6 km/h 86% 0.0 mm 147 W/m2
14:06 23.4 °C 20.9 °C 1005.0 hPa NNE 5.0 km/h 6.1 km/h 86% 0.0 mm 142 W/m2
14:12 23.4 °C 20.8 °C 1005.0 hPa Calm   7.2 km/h 85% 0.0 mm 111 W/m2
14:17 23.4 °C 20.8 °C 1005.0 hPa NNE 6.1 km/h 12.2 km/h 85% 0.3 mm 165 W/m2
14:22 23.2 °C 20.8 °C 1005.0 hPa NE 1.1 km/h 12.2 km/h 86% 0.3 mm 181 W/m2
14:27 23.1 °C 20.8 °C 1004.6 hPa NE 5.0 km/h 12.2 km/h 87% 0.3 mm 147 W/m2
14:32 23.0 °C 20.7 °C 1004.6 hPa NE 3.5 km/h 11.1 km/h 87% 0.3 mm 115 W/m2
14:37 22.9 °C 20.4 °C 1004.6 hPa NNE 1.1 km/h 8.7 km/h 86% 0.3 mm 124 W/m2
14:42 22.9 °C 20.4 °C 1004.6 hPa North 3.5 km/h 9.7 km/h 86% 0.3 mm 118 W/m2
14:47 22.9 °C 20.7 °C 1004.6 hPa Calm   9.7 km/h 87% 0.3 mm 113 W/m2
14:52 22.9 °C 20.4 °C 1004.6 hPa North 3.5 km/h 8.7 km/h 86% 0.3 mm 104 W/m2
14:57 23.0 °C 20.7 °C 1004.6 hPa Calm   8.7 km/h 87% 0.3 mm 113 W/m2
15:02 23.2 °C 20.9 °C 1004.6 hPa Calm   7.2 km/h 87% 0.3 mm 216 W/m2
15:04 23.3 °C 21.1 °C 1004.6 hPa Calm     87% 0.3 mm 195 W/m2
15:09 23.5 °C 21.2 °C 1004.6 hPa Calm     87% 0.3 mm 163 W/m2
15:14 23.8 °C 21.6 °C 1004.3 hPa Calm     87% 0.0 mm 129 W/m2
15:18 23.9 °C 21.4 °C 1004.3 hPa Calm     86% 0.0 mm 177 W/m2
15:23 24.0 °C 21.2 °C 1004.3 hPa Calm     84% 0.0 mm 266 W/m2
15:28 24.3 °C 21.3 °C 1003.9 hPa Calm     83% 0.0 mm 186 W/m2
15:33 24.5 °C 21.3 °C 1004.3 hPa NE 6.1 km/h 7.2 km/h 82% 0.0 mm 182 W/m2
15:38 24.4 °C 20.9 °C 1003.9 hPa Calm   7.2 km/h 81% 0.0 mm 155 W/m2
15:43 24.5 °C 21.3 °C 1003.9 hPa Calm   7.2 km/h 82% 0.0 mm 162 W/m2
15:48 24.6 °C 21.2 °C 1003.9 hPa Calm   3.5 km/h 81% 0.0 mm 140 W/m2
15:53 24.8 °C 21.3 °C 1003.6 hPa Calm   3.5 km/h 81% 0.0 mm 132 W/m2
15:58 25.0 °C 21.3 °C 1003.6 hPa Calm     80% 0.0 mm 163 W/m2
16:03 25.0 °C 20.9 °C 1003.3 hPa Calm     78% 0.0 mm 161 W/m2
16:08 25.0 °C 20.9 °C 1003.6 hPa Calm     78% 0.0 mm 168 W/m2
16:13 25.0 °C 20.9 °C 1003.6 hPa Calm     78% 0.0 mm 198 W/m2
16:18 25.2 °C 21.1 °C 1003.6 hPa Calm     78% 0.0 mm 239 W/m2
16:23 25.5 °C 21.0 °C 1003.3 hPa Calm   5.0 km/h 76% 0.0 mm 181 W/m2
16:28 25.5 °C 20.8 °C 1003.3 hPa Calm   5.0 km/h 75% 0.0 mm 145 W/m2
16:33 25.3 °C 20.8 °C 1003.3 hPa Calm   2.6 km/h 76% 0.0 mm 175 W/m2
16:38 25.1 °C 21.0 °C 1003.3 hPa Calm   1.1 km/h 78% 0.0 mm 232 W/m2
16:43 25.2 °C 21.1 °C 1003.3 hPa NNE 2.6 km/h 6.1 km/h 78% 0.0 mm 203 W/m2
16:48 25.2 °C 20.9 °C 1002.9 hPa NNE 5.0 km/h 9.7 km/h 77% 0.0 mm 158 W/m2
16:53 25.0 °C 20.5 °C 1002.9 hPa NNE 3.5 km/h 9.7 km/h 76% 0.0 mm 135 W/m2
16:58 24.7 °C 20.6 °C 1002.9 hPa NNE 5.0 km/h 11.1 km/h 78% 0.0 mm 169 W/m2
17:03 24.6 °C 20.7 °C 1002.9 hPa NNE 2.6 km/h 12.2 km/h 79% 0.0 mm 152 W/m2
17:08 24.5 °C 20.7 °C 1002.9 hPa NNE 5.0 km/h 12.2 km/h 79% 0.0 mm 119 W/m2
17:13 24.4 °C 20.7 °C 1002.9 hPa NNE 3.5 km/h 9.7 km/h 80% 0.0 mm 122 W/m2
17:18 24.3 °C 20.7 °C 1002.6 hPa NNE 2.6 km/h 9.7 km/h 80% 0.0 mm 140 W/m2
17:23 24.3 °C 20.7 °C 1002.6 hPa NNE 7.2 km/h 9.7 km/h 80% 0.0 mm 157 W/m2
17:28 24.3 °C 20.4 °C 1002.6 hPa NE 3.5 km/h 14.8 km/h 79% 0.0 mm 146 W/m2
17:33 24.3 °C 20.2 °C 1002.3 hPa NNE 2.6 km/h 14.8 km/h 78% 0.0 mm 165 W/m2
17:38 24.3 °C 20.1 °C 1002.6 hPa North 9.7 km/h 12.2 km/h 77% 0.0 mm 147 W/m2
17:43 24.2 °C 19.5 °C 1002.6 hPa North 12.2 km/h 21.9 km/h 75% 0.0 mm 104 W/m2
17:48 24.2 °C 19.3 °C 1002.6 hPa North 14.8 km/h 21.9 km/h 74% 0.0 mm 103 W/m2
17:53 24.2 °C 19.1 °C 1002.3 hPa North 11.1 km/h 21.9 km/h 73% 0.0 mm 111 W/m2
17:58 24.1 °C 19.0 °C 1002.6 hPa NNE 5.0 km/h 20.9 km/h 73% 0.0 mm 118 W/m2
18:03 24.2 °C 19.1 °C 1002.6 hPa NNE 5.0 km/h 18.3 km/h 73% 0.0 mm 131 W/m2
18:08 24.2 °C 18.8 °C 1002.6 hPa North 5.0 km/h 14.8 km/h 72% 0.0 mm 106 W/m2
18:13 24.3 °C 18.9 °C 1002.6 hPa North 2.6 km/h 9.7 km/h 72% 0.0 mm 89 W/m2
18:18 24.2 °C 18.8 °C 1002.6 hPa NNE 2.6 km/h 13.4 km/h 72% 0.0 mm 90 W/m2
18:23 24.2 °C 19.1 °C 1002.9 hPa NNE 2.6 km/h 13.4 km/h 73% 0.0 mm 80 W/m2
18:28 24.1 °C 19.0 °C 1002.6 hPa Calm   7.2 km/h 73% 0.0 mm 68 W/m2
18:33 24.1 °C 19.2 °C 1002.9 hPa Calm   7.2 km/h 74% 0.0 mm 43 W/m2
18:38 24.0 °C 19.1 °C 1002.9 hPa NE 1.1 km/h 5.0 km/h 74% 0.0 mm 50 W/m2
18:43 23.7 °C 19.2 °C 1002.9 hPa Calm   5.0 km/h 76% 0.0 mm 43 W/m2
18:48 23.5 °C 19.3 °C 1002.9 hPa NE 1.1 km/h 5.0 km/h 77% 0.0 mm 33 W/m2
18:53 23.4 °C 19.4 °C 1002.9 hPa NNE 2.6 km/h 5.0 km/h 78% 0.0 mm 18 W/m2
18:58 23.3 °C 19.5 °C 1002.9 hPa Calm   5.0 km/h 79% 0.0 mm 25 W/m2
19:03 23.1 °C 19.3 °C 1002.9 hPa North 6.1 km/h 8.7 km/h 79% 0.0 mm 19 W/m2
19:08 23.0 °C 19.2 °C 1002.9 hPa North 2.6 km/h 12.2 km/h 79% 0.0 mm 18 W/m2
19:13 22.9 °C 19.3 °C 1002.9 hPa North 5.0 km/h 12.2 km/h 80% 0.0 mm 9 W/m2
19:18 22.8 °C 19.4 °C 1002.6 hPa North 5.0 km/h 8.7 km/h 81% 0.0 mm 6 W/m2
19:23 22.7 °C 19.3 °C 1002.6 hPa NNE 5.0 km/h 8.7 km/h 81% 0.0 mm 6 W/m2
19:28 22.6 °C 19.2 °C 1002.9 hPa NNE 5.0 km/h 7.2 km/h 81% 0.0 mm 7 W/m2
19:33 22.5 °C 19.1 °C 1002.9 hPa NNE 2.6 km/h 8.7 km/h 81% 0.0 mm 2 W/m2
19:38 22.4 °C 19.0 °C 1002.9 hPa NNE 3.5 km/h 9.7 km/h 81% 0.0 mm 0 W/m2
19:43 22.4 °C 19.0 °C 1002.9 hPa North 3.5 km/h 11.1 km/h 81% 0.0 mm 0 W/m2
19:48 22.3 °C 18.9 °C 1002.9 hPa NNE 2.6 km/h 11.1 km/h 81% 0.0 mm 0 W/m2
19:53 22.2 °C 18.8 °C 1002.9 hPa NNE 3.5 km/h 11.1 km/h 81% 0.0 mm 0 W/m2
19:58 22.2 °C 19.0 °C 1002.9 hPa NNE 1.1 km/h 11.1 km/h 82% 0.0 mm 0 W/m2
20:03 22.1 °C 18.9 °C 1002.9 hPa North 1.1 km/h 9.7 km/h 82% 0.0 mm 0 W/m2
20:08 21.9 °C 18.9 °C 1002.9 hPa Calm   7.2 km/h 83% 0.0 mm 0 W/m2
20:10 21.9 °C 18.9 °C 1002.9 hPa Calm   6.1 km/h 83% 0.0 mm 0 W/m2
20:15 21.8 °C 18.8 °C 1002.9 hPa Calm   5.0 km/h 83% 0.0 mm 0 W/m2
20:20 21.7 °C 18.9 °C 1003.3 hPa Calm     84% 0.0 mm 0 W/m2
20:25 21.6 °C 18.8 °C 1003.3 hPa NNW 1.1 km/h 5.0 km/h 84% 0.0 mm 0 W/m2
20:30 21.5 °C 18.9 °C 1003.3 hPa Calm   5.0 km/h 85% 0.0 mm 0 W/m2
20:35 21.4 °C 18.8 °C 1002.9 hPa Calm   3.5 km/h 85% 0.0 mm 0 W/m2
20:40 21.3 °C 18.7 °C 1003.3 hPa Calm     85% 0.0 mm 0 W/m2
20:45 21.3 °C 18.7 °C 1003.3 hPa Calm     85% 0.0 mm 0 W/m2
20:50 21.2 °C 18.6 °C 1003.6 hPa Calm     85% 0.0 mm 0 W/m2
20:55 21.0 °C 18.6 °C 1003.6 hPa Calm     86% 0.0 mm 0 W/m2
21:00 21.0 °C 18.8 °C 1003.3 hPa Calm     87% 0.0 mm 0 W/m2
21:05 20.8 °C 18.8 °C 1003.3 hPa Calm     88% 0.0 mm 0 W/m2
21:10 20.7 °C 18.8 °C 1003.6 hPa Calm     89% 0.0 mm 0 W/m2
21:15 20.6 °C 18.7 °C 1003.6 hPa Calm     89% 0.0 mm 0 W/m2
21:31 21.2 °C 18.9 °C 1003.6 hPa ENE 3.5 km/h 9.7 km/h 87% 0.0 mm 0 W/m2
21:36 21.3 °C 18.9 °C 1003.6 hPa Calm   9.7 km/h 86% 0.0 mm 0 W/m2
21:41 21.3 °C 18.9 °C 1003.6 hPa Calm   6.1 km/h 86% 0.0 mm 0 W/m2
21:46 21.3 °C 18.7 °C 1003.6 hPa ENE 5.0 km/h 8.7 km/h 85% 0.0 mm 0 W/m2
21:51 21.2 °C 18.8 °C 1003.6 hPa NE 5.0 km/h 11.1 km/h 86% 0.0 mm 0 W/m2
21:56 21.1 °C 18.7 °C 1003.6 hPa NE 6.1 km/h 11.1 km/h 86% 0.0 mm 0 W/m2
22:01 21.1 °C 18.9 °C 1003.6 hPa NE 3.5 km/h 12.2 km/h 87% 0.0 mm 0 W/m2
22:06 21.1 °C 18.9 °C 1003.6 hPa NE 3.5 km/h 12.2 km/h 87% 0.0 mm 0 W/m2
22:11 21.0 °C 18.8 °C 1003.3 hPa NNE 3.5 km/h 12.2 km/h 87% 0.0 mm 0 W/m2
22:16 21.0 °C 18.8 °C 1003.6 hPa NNE 3.5 km/h 9.7 km/h 87% 0.0 mm 0 W/m2
22:21 21.0 °C 18.8 °C 1003.3 hPa NNE 5.0 km/h 8.7 km/h 87% 0.0 mm 0 W/m2
22:26 21.0 °C 18.8 °C 1003.6 hPa NNE 3.5 km/h 11.1 km/h 87% 0.0 mm 0 W/m2
22:31 21.0 °C 18.8 °C 1003.6 hPa NNE 1.1 km/h 11.1 km/h 87% 0.0 mm 0 W/m2
22:36 21.0 °C 18.8 °C 1003.6 hPa Calm   9.7 km/h 87% 0.0 mm 0 W/m2
22:41 21.0 °C 18.8 °C 1003.6 hPa Calm   7.2 km/h 87% 0.0 mm 0 W/m2
22:46 21.0 °C 18.6 °C 1003.3 hPa Calm     86% 0.0 mm 0 W/m2
22:51 21.0 °C 18.6 °C 1003.3 hPa Calm   6.1 km/h 86% 0.0 mm 0 W/m2
22:56 21.0 °C 18.6 °C 1003.3 hPa NNE 2.6 km/h 8.7 km/h 86% 0.0 mm 0 W/m2
23:01 21.1 °C 18.5 °C 1002.9 hPa North 5.0 km/h 9.7 km/h 85% 0.0 mm 0 W/m2
23:06 21.1 °C 18.5 °C 1002.9 hPa North 6.1 km/h 9.7 km/h 85% 0.0 mm 0 W/m2
23:11 21.1 °C 18.5 °C 1002.9 hPa Calm   9.7 km/h 85% 0.0 mm 0 W/m2
23:16 21.0 °C 18.4 °C 1002.9 hPa NW 1.1 km/h 8.7 km/h 85% 0.0 mm 0 W/m2
23:21 20.8 °C 18.6 °C 1002.9 hPa SW 3.5 km/h 6.1 km/h 87% 0.0 mm 0 W/m2
23:26 20.6 °C 18.6 °C 1003.3 hPa Calm   6.1 km/h 88% 0.0 mm 0 W/m2
23:31 20.4 °C 18.4 °C 1002.9 hPa Calm   6.1 km/h 88% 0.0 mm 0 W/m2
23:36 20.4 °C 18.6 °C 1002.9 hPa Calm     89% 0.0 mm 0 W/m2
23:41 20.4 °C 18.6 °C 1002.9 hPa Calm     89% 0.0 mm 0 W/m2
23:46 20.3 °C 18.4 °C 1002.9 hPa Calm     89% 0.0 mm 0 W/m2
23:51 20.1 °C 18.2 °C 1002.9 hPa Calm     89% 0.0 mm 0 W/m2
23:56 20.1 °C 18.2 °C 1002.9 hPa Calm   3.5 km/h 89% 0.0 mm 0 W/m2
Northern Hawkes Bay. New Zealand Historic Data
Compliments of Weather Underground - 2.25 mb